Time;durP1;ratioP1;P1;durP2;ratioP2;P2;SDS_P1;SDS_P2;PMS_P1;PMS_P2;Temp;Humidity;BMP_temperature;BMP_pressure;BME280_temperature;BME280_humidity;BME280_pressure;Samples;Min_cycle;Max_cycle;Signal;HPM_P1;HPM_P2
2022/08/23 00:01:24;;;;;;;18.70;5.90;;;21.00;99.90;;;;;;4149350;28;20197;-94
2022/08/23 00:03:24;;;;;;;11.93;5.35;;;21.00;99.90;;;;;;4149501;28;20182;-94
2022/08/23 00:05:25;;;;;;;18.65;5.72;;;20.90;99.90;;;;;;4165831;28;20176;-93
2022/08/23 00:07:26;;;;;;;18.38;6.25;;;20.90;99.90;;;;;;4149350;28;20526;-93
2022/08/23 00:09:28;;;;;;;21.48;6.10;;;20.80;99.90;;;;;;4165719;28;20228;-93
2022/08/23 00:11:33;;;;;;;15.23;5.95;;;20.70;99.90;;;;;;4182238;28;20167;-94
2022/08/23 00:13:34;;;;;;;19.33;6.10;;;20.80;99.90;;;;;;4166436;28;20559;-94
2022/08/23 00:15:36;;;;;;;16.27;6.10;;;21.10;99.90;;;;;;4182198;28;20175;-93
2022/08/23 00:17:36;;;;;;;17.35;6.05;;;21.10;99.90;;;;;;4149451;28;20176;-93
2022/08/23 00:19:38;;;;;;;13.13;5.40;;;21.10;99.90;;;;;;4165431;28;20207;-94
2022/08/23 00:21:40;;;;;;;17.35;5.30;;;21.20;99.90;;;;;;4149332;28;20204;-94
2022/08/23 00:23:41;;;;;;;14.18;5.93;;;21.20;99.90;;;;;;4148727;28;20271;-93
2022/08/23 00:25:42;;;;;;;14.07;5.68;;;21.20;99.90;;;;;;4181859;28;20175;-94
2022/08/23 00:27:43;;;;;;;22.02;5.80;;;21.10;99.90;;;;;;4149109;28;20655;-93
2022/08/23 00:29:48;;;;;;;15.05;5.50;;;21.10;99.90;;;;;;4148882;28;20193;-93
2022/08/23 00:31:48;;;;;;;13.73;5.15;;;21.10;99.90;;;;;;4165423;28;20171;-94
2022/08/23 00:33:49;;;;;;;14.82;5.85;;;21.10;99.90;;;;;;4165484;28;20168;-94
2022/08/23 00:35:51;;;;;;;14.93;5.80;;;21.10;99.90;;;;;;4149185;28;20184;-92
2022/08/23 00:37:52;;;;;;;13.85;4.88;;;21.10;99.90;;;;;;4165430;28;20267;-93
2022/08/23 00:39:52;;;;;;;14.85;5.88;;;21.10;99.90;;;;;;4165205;28;20195;-93
2022/08/23 00:41:59;;;;;;;18.85;6.20;;;21.10;99.90;;;;;;4149165;28;20267;-93
2022/08/23 00:49:00;;;;;;;14.85;5.95;;;21.00;99.90;;;;;;4165111;28;20623;-94
2022/08/23 00:51:13;;;;;;;14.20;6.30;;;20.90;99.90;;;;;;4165289;28;20255;-93
2022/08/23 00:53:19;;;;;;;14.48;6.18;;;20.90;99.90;;;;;;4148711;28;20575;-93
2022/08/23 00:55:20;;;;;;;14.70;6.15;;;20.90;99.90;;;;;;4165046;28;20168;-94
2022/08/23 00:57:21;;;;;;;16.65;7.40;;;20.80;99.90;;;;;;4165176;28;20180;-95
2022/08/23 00:59:23;;;;;;;24.00;6.97;;;20.80;99.90;;;;;;4148707;28;20200;-92
2022/08/23 01:01:23;;;;;;;23.02;7.32;;;20.60;99.90;;;;;;4148632;28;20557;-93
2022/08/23 01:03:27;;;;;;;19.75;7.15;;;20.50;99.90;;;;;;4164956;28;20187;-93
2022/08/23 01:05:40;;;;;;;18.95;6.72;;;20.50;99.90;;;;;;4148655;28;20578;-93
2022/08/23 01:07:54;;;;;;;23.05;7.45;;;20.40;99.90;;;;;;4148704;28;20264;-92
2022/08/23 01:10:00;;;;;;;21.65;7.63;;;20.50;99.90;;;;;;4148403;28;20192;-92
2022/08/23 01:12:03;;;;;;;13.15;7.22;;;20.40;99.90;;;;;;4148487;28;20184;-92
2022/08/23 01:14:34;;;;;;;19.63;6.60;;;20.40;99.90;;;;;;4164685;28;20172;-92
2022/08/23 01:16:44;;;;;;;17.60;6.72;;;20.40;99.90;;;;;;4151832;28;20184;-93
2022/08/23 01:18:46;;;;;;;21.15;8.75;;;20.50;99.90;;;;;;4148392;28;20208;-93
2022/08/23 01:21:00;;;;;;;21.98;8.00;;;20.60;99.90;;;;;;4148326;28;20288;-94
2022/08/23 01:23:07;;;;;;;22.83;8.73;;;20.60;99.90;;;;;;4148320;28;20191;-92
2022/08/23 01:25:12;;;;;;;21.77;7.82;;;20.60;99.90;;;;;;4164747;28;20171;-93
2022/08/23 01:27:17;;;;;;;25.77;8.30;;;20.60;99.90;;;;;;4164759;28;20171;-93
2022/08/23 01:29:17;;;;;;;15.50;7.82;;;20.50;99.90;;;;;;4164490;28;20192;-93
2022/08/23 01:31:20;;;;;;;18.13;8.35;;;20.50;99.90;;;;;;4148476;28;20526;-93
2022/08/23 01:33:22;;;;;;;18.77;7.93;;;20.50;99.90;;;;;;4164761;28;20172;-92
2022/08/23 01:35:35;;;;;;;21.45;7.93;;;20.50;99.90;;;;;;4148058;28;20212;-93
2022/08/23 01:37:37;;;;;;;20.17;8.20;;;20.50;99.90;;;;;;4148266;28;20683;-93
2022/08/23 01:39:37;;;;;;;19.58;8.95;;;20.50;99.90;;;;;;4180948;28;20191;-93
2022/08/23 01:41:40;;;;;;;21.80;8.90;;;20.40;99.90;;;;;;4148318;28;20220;-93
2022/08/23 01:43:42;;;;;;;20.65;8.93;;;20.50;99.90;;;;;;4164780;28;20172;-93
2022/08/23 01:45:43;;;;;;;21.17;8.98;;;20.40;99.90;;;;;;4164504;28;20193;-94
2022/08/23 01:47:46;;;;;;;26.73;8.98;;;20.50;99.90;;;;;;4148326;28;20177;-92
2022/08/23 01:49:47;;;;;;;18.27;8.57;;;20.40;99.90;;;;;;4164509;28;20195;-93
2022/08/23 01:51:47;;;;;;;21.35;8.82;;;20.40;99.90;;;;;;4148186;28;20259;-93
2022/08/23 01:53:49;;;;;;;20.67;8.00;;;20.40;99.90;;;;;;4148075;28;20295;-94
2022/08/23 01:55:50;;;;;;;21.50;8.77;;;20.40;99.90;;;;;;4164523;28;20251;-95
2022/08/23 01:57:57;;;;;;;17.05;8.60;;;20.30;99.90;;;;;;4164531;28;20266;-94
2022/08/23 01:59:58;;;;;;;17.40;8.65;;;20.20;99.90;;;;;;4164555;28;20192;-94
2022/08/23 02:01:59;;;;;;;19.25;7.95;;;20.10;99.90;;;;;;4148155;28;20263;-93
2022/08/23 02:04:00;;;;;;;16.98;7.97;;;20.00;99.90;;;;;;4148079;28;20648;-94
2022/08/23 02:06:01;;;;;;;18.67;7.90;;;19.90;99.90;;;;;;4148008;28;20184;-92
2022/08/23 02:10:24;;;;;;;17.20;8.13;;;19.80;99.90;;;;;;4164423;28;20238;-93
2022/08/23 02:12:25;;;;;;;19.65;8.35;;;19.90;99.90;;;;;;4164370;28;20182;-94
2022/08/23 02:14:36;;;;;;;20.58;8.25;;;19.90;99.90;;;;;;4148694;28;20177;-94
2022/08/23 02:16:44;;;;;;;16.25;7.53;;;19.90;99.90;;;;;;4147977;28;20526;-94
2022/08/23 02:18:46;;;;;;;19.77;8.52;;;19.80;99.90;;;;;;4147882;28;20197;-94
2022/08/23 02:20:49;;;;;;;21.60;8.05;;;19.70;99.90;;;;;;4147677;28;20251;-94
2022/08/23 02:22:50;;;;;;;17.73;8.18;;;19.70;99.90;;;;;;4148006;28;20205;-94
2022/08/23 02:24:51;;;;;;;18.65;7.90;;;19.70;99.90;;;;;;4180643;28;20175;-95
2022/08/23 02:26:56;;;;;;;15.10;8.13;;;19.60;99.90;;;;;;4147976;28;20731;-93
2022/08/23 02:28:57;;;;;;;22.58;8.52;;;19.60;99.90;;;;;;4148102;28;20196;-93
2022/08/23 02:30:58;;;;;;;20.85;7.95;;;19.60;99.90;;;;;;4164409;28;20191;-93
2022/08/23 02:33:00;;;;;;;18.13;8.27;;;19.60;99.90;;;;;;4180547;28;20183;-95
2022/08/23 02:35:02;;;;;;;24.52;9.32;;;19.60;99.90;;;;;;4164029;28;20177;-93
2022/08/23 02:37:05;;;;;;;14.07;7.70;;;19.50;99.90;;;;;;4164329;28;20191;-93
2022/08/23 02:39:07;;;;;;;25.80;8.93;;;19.50;99.90;;;;;;4164060;28;20652;-94
2022/08/23 02:41:08;;;;;;;20.30;9.15;;;19.60;99.90;;;;;;4147770;28;20216;-93
2022/08/23 02:43:09;;;;;;;24.00;9.25;;;19.60;99.90;;;;;;4147809;28;20323;-93
2022/08/23 02:45:11;;;;;;;22.83;9.25;;;19.60;99.90;;;;;;4147813;28;20168;-94
2022/08/23 02:47:18;;;;;;;18.88;8.00;;;19.60;99.90;;;;;;4164817;28;20175;-93
2022/08/23 02:49:30;;;;;;;29.45;11.00;;;19.60;99.90;;;;;;4166820;28;20669;-93
2022/08/23 02:51:31;;;;;;;16.98;9.40;;;19.60;99.90;;;;;;4167001;28;20652;-93
2022/08/23 02:53:32;;;;;;;21.00;9.02;;;19.60;99.90;;;;;;4166916;28;20660;-94
2022/08/23 02:55:34;;;;;;;25.55;10.00;;;19.60;99.90;;;;;;4150663;28;20177;-93
2022/08/23 02:57:38;;;;;;;25.35;9.82;;;19.70;99.90;;;;;;4167251;28;20698;-93
2022/08/23 02:59:39;;;;;;;23.15;10.18;;;19.60;99.90;;;;;;4166947;28;20203;-92
2022/08/23 03:01:40;;;;;;;25.00;10.63;;;19.70;99.90;;;;;;4183392;28;20203;-95
2022/08/23 03:03:56;;;;;;;25.92;10.50;;;19.70;99.90;;;;;;4152633;28;20185;-93
2022/08/23 03:05:57;;;;;;;32.70;10.95;;;19.80;99.90;;;;;;4150631;28;20176;-94
2022/08/23 03:07:58;;;;;;;19.25;9.65;;;19.80;99.90;;;;;;4183141;28;20299;-93
2022/08/23 03:09:59;;;;;;;26.80;10.48;;;19.70;99.90;;;;;;4166753;28;20664;-94
2022/08/23 03:12:01;;;;;;;20.05;9.95;;;19.70;99.90;;;;;;4150303;28;20203;-94
2022/08/23 03:14:07;;;;;;;21.63;9.43;;;19.70;99.90;;;;;;4166928;28;20180;-93
2022/08/23 03:16:08;;;;;;;25.88;9.98;;;19.70;99.90;;;;;;4166644;28;20180;-96
2022/08/23 03:18:11;;;;;;;26.38;10.23;;;19.70;99.90;;;;;;4150440;28;20169;-93
2022/08/23 03:20:13;;;;;;;23.08;10.10;;;19.70;99.90;;;;;;4150143;28;20697;-93
2022/08/23 03:22:14;;;;;;;22.55;9.80;;;19.70;99.90;;;;;;4166406;28;20672;-95
2022/08/23 03:24:15;;;;;;;26.17;10.43;;;19.60;99.90;;;;;;4166315;28;20204;-94
2022/08/23 03:26:16;;;;;;;20.63;10.00;;;19.50;99.90;;;;;;4166277;28;20172;-94
2022/08/23 03:28:17;;;;;;;22.58;10.27;;;19.50;99.90;;;;;;4150207;28;20173;-95
2022/08/23 03:30:19;;;;;;;25.77;10.75;;;19.40;99.90;;;;;;4150334;28;20169;-93
2022/08/23 03:32:23;;;;;;;20.48;9.73;;;19.40;99.90;;;;;;4166579;28;20224;-94
2022/08/23 03:34:25;;;;;;;21.40;10.02;;;19.40;99.90;;;;;;4166341;28;20263;-93
2022/08/23 03:36:26;;;;;;;31.65;11.40;;;19.40;99.90;;;;;;4166243;28;20701;-93
2022/08/23 03:38:27;;;;;;;22.85;10.45;;;19.40;99.90;;;;;;4149811;28;20255;-93
2022/08/23 03:40:27;;;;;;;20.55;9.65;;;19.40;99.90;;;;;;4150017;28;20243;-93
2022/08/23 03:42:28;;;;;;;28.02;10.27;;;19.50;99.90;;;;;;4149902;28;20605;-94
2022/08/23 03:44:29;;;;;;;20.10;10.05;;;19.50;99.90;;;;;;4149896;28;20215;-95
2022/08/23 03:46:31;;;;;;;21.33;10.10;;;19.50;99.90;;;;;;4166251;28;20632;-93
2022/08/23 03:48:34;;;;;;;22.25;10.68;;;19.40;99.90;;;;;;4150124;28;20649;-93
2022/08/23 03:50:35;;;;;;;18.88;10.23;;;19.30;99.90;;;;;;4166087;28;20164;-93
2022/08/23 03:52:35;;;;;;;25.73;10.88;;;19.30;99.90;;;;;;4149821;28;20180;-93
2022/08/23 03:54:36;;;;;;;22.17;11.18;;;19.20;99.90;;;;;;4149750;28;20216;-95
2022/08/23 03:56:48;;;;;;;22.17;10.32;;;19.10;99.90;;;;;;4149788;28;20165;-93
2022/08/23 03:58:49;;;;;;;21.20;10.15;;;19.10;99.90;;;;;;4148694;28;20208;-94
2022/08/23 04:00:50;;;;;;;25.75;10.43;;;19.00;99.90;;;;;;4165799;28;20195;-93
2022/08/23 04:02:51;;;;;;;19.63;10.00;;;19.00;99.90;;;;;;4149494;28;20181;-93
2022/08/23 04:04:53;;;;;;;19.85;10.20;;;18.90;99.90;;;;;;4149789;28;20169;-95
2022/08/23 04:07:16;;;;;;;19.48;10.10;;;18.90;99.90;;;;;;4165910;28;20180;-93
2022/08/23 04:09:17;;;;;;;21.30;9.10;;;18.90;99.90;;;;;;4149424;28;20189;-94
2022/08/23 04:11:20;;;;;;;25.50;10.05;;;18.90;99.90;;;;;;4165989;28;20176;-93
2022/08/23 04:13:29;;;;;;;19.95;9.75;;;18.90;99.90;;;;;;4150596;28;20191;-93
2022/08/23 04:15:30;;;;;;;20.33;9.60;;;19.00;99.90;;;;;;4165882;28;20173;-93
2022/08/23 04:17:31;;;;;;;21.25;9.57;;;19.00;99.90;;;;;;4149408;28;20184;-93
2022/08/23 04:19:32;;;;;;;23.95;10.23;;;19.00;99.90;;;;;;4149331;28;20189;-93
2022/08/23 04:21:38;;;;;;;24.83;11.10;;;19.00;99.90;;;;;;4149530;28;20201;-94
2022/08/23 04:23:39;;;;;;;21.50;10.52;;;19.00;99.90;;;;;;4165527;28;20172;-92
2022/08/23 04:25:43;;;;;;;24.92;9.95;;;19.00;99.90;;;;;;4149215;28;20380;-94
2022/08/23 04:27:44;;;;;;;27.38;10.63;;;19.00;99.90;;;;;;4165593;28;20188;-93
2022/08/23 04:29:45;;;;;;;18.85;10.15;;;19.00;99.90;;;;;;4149200;28;20189;-93
2022/08/23 04:31:45;;;;;;;25.45;10.48;;;19.00;99.90;;;;;;4165572;28;20187;-94
2022/08/23 04:33:47;;;;;;;20.67;10.18;;;19.00;99.90;;;;;;4149245;28;20165;-93
2022/08/23 04:35:50;;;;;;;21.17;9.68;;;19.00;99.90;;;;;;4149248;28;20641;-93
2022/08/23 04:37:53;;;;;;;22.40;9.32;;;19.00;99.90;;;;;;4181734;28;20180;-93
2022/08/23 04:42:19;;;;;;;23.00;9.90;;;18.90;99.90;;;;;;4165276;28;20323;-93
2022/08/23 04:44:21;;;;;;;27.80;10.70;;;19.00;99.90;;;;;;4165408;28;20164;-93
2022/08/23 04:46:23;;;;;;;23.38;12.05;;;19.10;99.90;;;;;;4165330;28;20183;-94
2022/08/23 04:48:25;;;;;;;21.15;11.15;;;19.10;99.90;;;;;;4148841;28;20211;-93
2022/08/23 04:50:26;;;;;;;28.15;11.80;;;19.00;99.90;;;;;;4165005;28;20683;-93
2022/08/23 04:52:45;;;;;;;24.77;11.60;;;18.70;99.90;;;;;;4165651;28;20254;-92
2022/08/23 04:54:46;;;;;;;22.05;10.48;;;18.60;99.90;;;;;;4148914;28;20169;-96
2022/08/23 04:57:04;;;;;;;26.05;10.05;;;18.50;99.90;;;;;;4151081;28;20177;-93
2022/08/23 04:59:08;;;;;;;20.38;10.27;;;18.50;99.90;;;;;;4148988;28;20197;-95
2022/08/23 05:01:09;;;;;;;26.17;10.82;;;18.60;99.90;;;;;;4148803;28;20243;-93
2022/08/23 05:03:11;;;;;;;17.65;9.80;;;18.70;99.90;;;;;;4165093;28;20268;-94
2022/08/23 05:05:13;;;;;;;27.77;10.68;;;18.60;99.90;;;;;;4148507;28;20671;-94
2022/08/23 05:07:17;;;;;;;20.35;9.82;;;18.60;99.90;;;;;;4149049;28;20165;-96
2022/08/23 05:09:18;;;;;;;20.15;10.80;;;18.60;99.90;;;;;;4164737;28;20202;-93
2022/08/23 05:11:19;;;;;;;22.92;9.98;;;18.60;99.90;;;;;;4181299;28;20166;-94
2022/08/23 05:13:21;;;;;;;29.73;10.07;;;18.50;99.90;;;;;;4164749;28;20192;-93
2022/08/23 05:15:22;;;;;;;23.17;10.82;;;18.50;99.90;;;;;;4164769;28;20172;-93
2022/08/23 05:17:31;;;;;;;20.80;10.60;;;18.60;99.90;;;;;;4149311;28;20199;-94
2022/08/23 05:19:32;;;;;;;20.70;10.73;;;18.70;99.90;;;;;;4148907;28;20196;-93
2022/08/23 05:21:33;;;;;;;24.48;10.38;;;18.80;99.90;;;;;;4148425;28;20208;-93
2022/08/23 05:23:35;;;;;;;19.95;9.90;;;18.90;99.90;;;;;;4148524;28;20256;-95
2022/08/23 05:25:48;;;;;;;17.52;9.50;;;18.90;99.90;;;;;;4164764;28;20739;-93
2022/08/23 05:27:55;;;;;;;21.80;9.45;;;18.90;99.90;;;;;;4165191;28;20587;-93
2022/08/23 05:29:56;;;;;;;20.95;9.55;;;19.00;99.90;;;;;;4164654;28;20243;-94
2022/08/23 05:31:57;;;;;;;18.23;9.90;;;18.90;99.90;;;;;;4181485;28;20164;-95
2022/08/23 05:33:59;;;;;;;18.63;9.88;;;18.90;99.90;;;;;;4164715;28;20182;-94
2022/08/23 05:36:21;;;;;;;15.75;8.80;;;19.00;99.90;;;;;;4151238;28;20203;-95
2022/08/23 05:38:23;;;;;;;18.13;9.60;;;19.00;99.90;;;;;;4148146;28;20204;-94
2022/08/23 05:40:26;;;;;;;20.80;9.50;;;18.90;99.90;;;;;;4148249;28;20165;-95
2022/08/23 05:42:39;;;;;;;18.85;8.60;;;18.90;99.90;;;;;;4149738;28;20671;-94
2022/08/23 05:44:40;;;;;;;17.70;9.77;;;18.90;99.90;;;;;;4164593;28;20168;-95
2022/08/23 05:46:44;;;;;;;15.60;9.52;;;18.90;99.90;;;;;;4148286;28;20263;-96
2022/08/23 05:49:05;;;;;;;19.38;9.63;;;18.90;99.90;;;;;;4178102;28;20203;-93
2022/08/23 05:51:12;;;;;;;25.52;11.02;;;19.00;99.90;;;;;;4148565;28;20227;-94
2022/08/23 05:53:13;;;;;;;20.98;10.80;;;19.10;99.90;;;;;;4164582;28;20267;-95
2022/08/23 05:55:16;;;;;;;20.67;10.05;;;19.10;99.90;;;;;;4148554;28;20518;-95
2022/08/23 05:57:32;;;;;;;23.88;10.20;;;19.20;99.90;;;;;;4164710;28;20176;-94
2022/08/23 05:59:34;;;;;;;21.88;10.30;;;19.30;99.90;;;;;;4164562;28;20672;-93
2022/08/23 06:01:35;;;;;;;25.50;9.70;;;19.40;99.90;;;;;;4164491;28;20208;-94
2022/08/23 06:03:43;;;;;;;22.05;9.95;;;19.40;99.90;;;;;;4148708;28;20176;-94
2022/08/23 06:05:44;;;;;;;24.33;9.95;;;19.50;99.90;;;;;;4164250;28;20180;-93
2022/08/23 06:07:46;;;;;;;21.63;8.70;;;19.60;99.90;;;;;;4148130;28;20715;-94
2022/08/23 06:09:47;;;;;;;26.88;9.43;;;19.60;99.90;;;;;;4164534;28;20208;-92
2022/08/23 06:11:48;;;;;;;20.67;8.45;;;19.50;99.90;;;;;;4164376;28;20314;-92
2022/08/23 06:13:52;;;;;;;23.35;8.63;;;19.60;99.90;;;;;;4147980;28;20572;-92
2022/08/23 06:15:54;;;;;;;21.65;8.32;;;19.60;99.90;;;;;;4147899;28;20196;-92
2022/08/23 06:17:56;;;;;;;23.08;8.70;;;19.60;99.90;;;;;;4148217;28;20169;-96
2022/08/23 06:19:57;;;;;;;19.70;8.75;;;19.50;99.90;;;;;;4164447;28;20266;-94
2022/08/23 06:22:08;;;;;;;16.08;8.20;;;19.50;99.90;;;;;;4181547;28;20211;-94
2022/08/23 06:24:13;;;;;;;17.67;8.25;;;19.60;99.90;;;;;;4151796;28;20176;-96
2022/08/23 06:26:32;;;;;;;24.73;7.82;;;19.80;99.90;;;;;;4167237;28;20168;-94
2022/08/23 06:28:35;;;;;;;16.98;7.38;;;19.90;99.90;;;;;;4151372;28;20189;-92
2022/08/23 06:30:38;;;;;;;16.17;6.80;;;20.10;99.90;;;;;;4167557;28;20219;-94
2022/08/23 06:32:49;;;;;;;14.02;5.97;;;20.10;99.90;;;;;;4152356;28;20169;-95
2022/08/23 06:35:10;;;;;;;14.13;5.43;;;20.20;99.90;;;;;;4148241;28;20177;-94
2022/08/23 06:37:38;;;;;;;16.48;5.22;;;20.30;99.90;;;;;;4166384;28;20172;-95
2022/08/23 06:39:41;;;;;;;20.40;4.47;;;20.30;99.90;;;;;;4150922;28;20627;-94
2022/08/23 06:42:20;;;;;;;14.50;4.85;;;20.50;99.90;;;;;;4167209;28;20306;-94
2022/08/23 06:44:21;;;;;;;10.65;4.07;;;20.50;99.90;;;;;;4167013;28;20172;-95
2022/08/23 06:46:37;;;;;;;13.40;4.60;;;20.60;99.90;;;;;;4167252;28;20172;-95
2022/08/23 06:48:38;;;;;;;11.20;3.83;;;20.70;99.90;;;;;;4167267;28;20192;-92
2022/08/23 06:50:40;;;;;;;10.60;3.78;;;20.70;99.90;;;;;;4183903;28;20262;-93
2022/08/23 06:53:04;;;;;;;15.23;5.65;;;20.70;99.90;;;;;;4159395;28;20180;-92
2022/08/23 06:55:13;;;;;;;12.00;3.42;;;20.80;99.90;;;;;;4151428;28;20211;-94
2022/08/23 06:57:33;;;;;;;12.95;3.80;;;20.80;99.90;;;;;;4181376;28;20174;-95
2022/08/23 07:00:00;;;;;;;15.38;3.85;;;21.00;99.90;;;;;;4165897;28;20199;-93
2022/08/23 07:02:22;;;;;;;9.23;3.47;;;21.00;99.90;;;;;;4153271;28;20279;-94
2022/08/23 07:04:38;;;;;;;12.98;3.67;;;20.90;99.90;;;;;;4182681;28;20258;-90
2022/08/23 07:07:00;;;;;;;13.75;4.20;;;21.00;99.90;;;;;;4166744;28;20187;-93
2022/08/23 07:09:04;;;;;;;10.23;3.47;;;21.20;99.90;;;;;;4150502;28;20259;-91
2022/08/23 07:11:05;;;;;;;13.40;3.65;;;21.30;99.90;;;;;;4166804;28;20176;-93
2022/08/23 07:13:05;;;;;;;11.98;3.08;;;21.50;99.90;;;;;;4150324;28;20168;-94
2022/08/23 07:15:08;;;;;;;14.80;3.28;;;21.90;99.90;;;;;;4150251;28;20172;-92
2022/08/23 07:17:09;;;;;;;10.23;3.05;;;22.80;99.90;;;;;;4150305;28;20224;-94
2022/08/23 07:19:12;;;;;;;8.60;2.88;;;24.40;99.90;;;;;;4150342;28;20277;-95
2022/08/23 07:21:12;;;;;;;16.77;3.25;;;26.10;99.90;;;;;;4150103;28;20196;-94
2022/08/23 07:23:16;;;;;;;12.68;3.30;;;27.80;99.90;;;;;;4183105;28;20172;-94
2022/08/23 07:25:17;;;;;;;11.23;2.95;;;28.60;99.90;;;;;;4150209;28;20169;-93
2022/08/23 07:27:20;;;;;;;16.42;3.10;;;29.20;99.90;;;;;;4166577;28;20187;-95
2022/08/23 07:29:31;;;;;;;8.95;2.78;;;29.60;99.90;;;;;;4166522;28;20245;-94
2022/08/23 07:31:34;;;;;;;7.85;2.40;;;29.60;99.90;;;;;;4166537;28;20660;-94
2022/08/23 07:33:35;;;;;;;9.75;2.88;;;29.80;99.90;;;;;;4165622;28;20179;-95
2022/08/23 07:35:53;;;;;;;13.45;2.80;;;30.50;99.90;;;;;;4166652;28;20614;-95
2022/08/23 07:37:56;;;;;;;10.52;3.17;;;31.30;99.90;;;;;;4166743;28;20179;-95
2022/08/23 07:39:58;;;;;;;7.63;2.75;;;30.90;99.90;;;;;;4166809;28;20250;-94
2022/08/23 07:42:00;;;;;;;13.45;2.60;;;30.90;99.90;;;;;;4150163;28;20212;-93
2022/08/23 07:44:02;;;;;;;11.10;2.65;;;32.00;99.90;;;;;;4150766;28;20206;-95
2022/08/23 07:46:05;;;;;;;8.98;3.17;;;32.90;99.90;;;;;;4166140;28;20199;-92
2022/08/23 07:48:06;;;;;;;10.18;2.88;;;32.40;99.90;;;;;;4166155;28;20168;-96
2022/08/23 07:50:15;;;;;;;12.98;3.38;;;32.70;99.90;;;;;;4150992;28;20278;-94
2022/08/23 07:52:16;;;;;;;9.93;3.17;;;32.90;99.90;;;;;;4183395;28;20310;-95
2022/08/23 07:54:20;;;;;;;11.88;2.72;;;33.20;99.90;;;;;;4149725;28;20203;-94
2022/08/23 07:56:30;;;;;;;7.30;2.72;;;33.80;99.90;;;;;;4151807;28;20176;-95
2022/08/23 07:58:39;;;;;;;10.38;2.83;;;33.80;99.90;;;;;;4166575;28;20261;-96
2022/08/23 08:01:22;;;;;;;11.05;3.10;;;34.30;99.90;;;;;;4166368;28;20254;-94
2022/08/23 08:03:23;;;;;;;13.13;2.75;;;34.50;99.90;;;;;;4149748;28;20181;-96
2022/08/23 08:05:45;;;;;;;15.80;2.72;;;34.60;99.90;;;;;;4179751;28;20226;-94
2022/08/23 08:07:45;;;;;;;6.47;2.75;;;35.00;99.90;;;;;;4166158;28;20539;-94
2022/08/23 08:09:47;;;;;;;7.47;2.80;;;35.30;99.90;;;;;;4182380;28;20202;-94
2022/08/23 08:11:51;;;;;;;5.53;2.88;;;34.60;99.90;;;;;;4149722;28;20652;-96
2022/08/23 08:13:55;;;;;;;10.13;2.90;;;34.10;99.90;;;;;;4166363;28;20199;-96
2022/08/23 08:15:57;;;;;;;8.50;3.25;;;33.10;99.90;;;;;;4149858;28;20270;-94
2022/08/23 08:18:01;;;;;;;8.93;3.15;;;32.20;99.90;;;;;;4166238;28;20571;-94
2022/08/23 08:20:20;;;;;;;13.35;2.83;;;31.80;99.90;;;;;;4179984;28;20244;-94
2022/08/23 08:22:27;;;;;;;10.65;3.45;;;31.10;99.90;;;;;;4166250;28;20176;-93
2022/08/23 08:24:42;;;;;;;13.52;4.43;;;30.60;99.90;;;;;;4166101;28;20635;-93
2022/08/23 08:26:46;;;;;;;13.25;4.55;;;30.80;99.90;;;;;;4149696;28;20537;-94
2022/08/23 08:28:47;;;;;;;12.32;4.15;;;30.50;99.90;;;;;;4165510;28;20192;-94
2022/08/23 08:30:49;;;;;;;22.33;6.00;;;30.70;99.90;;;;;;4165658;28;20234;-95
2022/08/23 08:32:50;;;;;;;11.82;4.90;;;30.50;99.90;;;;;;4165298;28;20656;-93
2022/08/23 08:34:51;;;;;;;11.85;4.50;;;31.10;99.90;;;;;;4149221;28;20169;-94
2022/08/23 08:36:54;;;;;;;14.55;4.88;;;31.30;99.90;;;;;;4165127;28;20171;-92
2022/08/23 08:38:58;;;;;;;9.77;4.50;;;31.20;99.90;;;;;;4165648;28;20210;-94
2022/08/23 08:41:18;;;;;;;14.50;4.55;;;32.10;99.90;;;;;;4166662;28;20176;-94
2022/08/23 08:43:46;;;;;;;19.42;5.00;;;33.30;99.90;;;;;;4167590;28;20230;-92
2022/08/23 08:46:07;;;;;;;9.50;3.90;;;34.20;99.90;;;;;;4149410;28;20226;-95
2022/08/23 08:48:13;;;;;;;10.80;4.03;;;35.10;99.90;;;;;;4165236;28;20203;-94
2022/08/23 08:50:32;;;;;;;8.60;3.58;;;35.70;99.90;;;;;;4149365;28;20247;-95
2022/08/23 08:52:44;;;;;;;16.98;4.43;;;35.30;99.90;;;;;;4149173;28;20688;-92
2022/08/23 08:55:02;;;;;;;15.32;4.20;;;34.60;99.90;;;;;;4149942;28;20251;-92
2022/08/23 08:57:06;;;;;;;11.82;3.88;;;34.20;99.90;;;;;;4148966;28;20188;-95
2022/08/23 08:59:33;;;;;;;18.42;4.65;;;34.10;99.90;;;;;;4149681;28;20707;-92
2022/08/23 09:01:37;;;;;;;12.40;3.47;;;34.20;99.90;;;;;;4148868;28;20172;-95
2022/08/23 09:03:39;;;;;;;9.73;3.50;;;34.90;99.90;;;;;;4165075;28;20164;-95
2022/08/23 09:06:10;;;;;;;12.43;3.60;;;34.80;99.90;;;;;;4148699;28;20657;-96
2022/08/23 09:08:46;;;;;;;9.13;3.33;;;35.10;99.90;;;;;;4148065;28;20172;-93
2022/08/23 09:11:00;;;;;;;7.60;3.13;;;36.00;99.90;;;;;;4149071;28;20216;-93
2022/08/23 09:13:32;;;;;;;12.00;3.00;;;35.20;99.90;;;;;;4148657;28;20183;-93
2022/08/23 09:15:39;;;;;;;11.82;3.00;;;35.20;99.90;;;;;;4148542;28;20173;-94
2022/08/23 09:17:46;;;;;;;8.52;3.13;;;35.80;99.90;;;;;;4148453;28;20226;-94
2022/08/23 09:19:51;;;;;;;11.75;3.08;;;35.90;99.90;;;;;;4148224;28;20282;-94
2022/08/23 09:21:59;;;;;;;10.05;3.05;;;36.30;99.90;;;;;;4148775;28;20169;-94
2022/08/23 09:23:59;;;;;;;11.68;2.80;;;35.50;99.90;;;;;;4148251;28;20179;-92
2022/08/23 09:26:22;;;;;;;14.48;2.53;;;35.30;99.90;;;;;;4180409;28;20171;-93
2022/08/23 09:28:23;;;;;;;8.75;2.50;;;34.90;99.90;;;;;;4148560;28;20192;-94
2022/08/23 09:30:46;;;;;;;6.20;2.10;;;34.90;99.90;;;;;;4164858;28;20172;-94
2022/08/23 09:32:50;;;;;;;7.40;2.28;;;34.80;99.90;;;;;;4148528;28;20214;-93
2022/08/23 09:35:03;;;;;;;9.05;2.60;;;34.20;99.90;;;;;;4148526;28;20271;-93
2022/08/23 09:37:07;;;;;;;9.32;2.28;;;34.50;99.90;;;;;;4148338;28;20730;-91
2022/08/23 09:39:25;;;;;;;9.43;1.95;;;34.00;99.90;;;;;;4164372;28;20253;-93
2022/08/23 09:41:35;;;;;;;10.13;2.33;;;33.60;99.90;;;;;;4164672;28;20179;-93
2022/08/23 09:43:46;;;;;;;6.75;1.55;;;33.60;99.90;;;;;;4164853;28;20754;-94
2022/08/23 09:45:47;;;;;;;10.55;1.83;;;33.90;99.90;;;;;;4164809;28;20262;-96
2022/08/23 09:47:48;;;;;;;8.65;1.45;;;34.10;99.90;;;;;;4164761;28;20171;-94
2022/08/23 09:49:51;;;;;;;12.10;1.95;;;34.30;99.90;;;;;;4148003;28;20192;-94
2022/08/23 09:51:57;;;;;;;9.05;1.95;;;34.70;99.90;;;;;;4148131;28;20222;-94
2022/08/23 09:54:18;;;;;;;9.82;1.77;;;35.00;99.90;;;;;;4148027;28;20169;-93
2022/08/23 09:56:25;;;;;;;5.05;1.77;;;35.00;99.90;;;;;;4148281;28;20176;-91
2022/08/23 09:58:34;;;;;;;2.45;1.33;;;34.20;99.90;;;;;;4151096;28;20191;-93
2022/08/23 10:00:36;;;;;;;7.53;1.38;;;33.30;99.90;;;;;;4151766;28;20160;-94
2022/08/23 10:02:38;;;;;;;4.47;1.10;;;32.20;99.90;;;;;;4151848;28;20176;-92
2022/08/23 10:04:59;;;;;;;8.90;1.50;;;31.60;99.90;;;;;;4167914;28;20175;-92
2022/08/23 10:07:01;;;;;;;8.68;1.30;;;32.30;99.90;;;;;;4168143;28;20175;-92
2022/08/23 10:09:05;;;;;;;3.83;0.80;;;32.10;99.90;;;;;;4151174;28;20647;-92
2022/08/23 10:11:17;;;;;;;9.85;1.20;;;32.30;99.90;;;;;;4151586;28;20525;-90
2022/08/23 10:13:19;;;;;;;6.25;1.42;;;33.00;99.90;;;;;;4151722;28;20226;-93
2022/08/23 10:15:25;;;;;;;8.15;0.95;;;33.60;99.90;;;;;;4167492;28;20650;-94
2022/08/23 10:17:52;;;;;;;2.92;0.70;;;33.60;99.90;;;;;;4150832;28;20560;-94
2022/08/23 10:20:10;;;;;;;4.25;0.90;;;33.90;99.90;;;;;;4150841;28;20680;-91
2022/08/23 10:22:24;;;;;;;1.63;0.88;;;33.50;99.90;;;;;;4150938;28;20184;-93
2022/08/23 10:25:11;;;;;;;2.75;0.70;;;33.90;99.90;;;;;;4154121;28;20179;-94
2022/08/23 10:29:39;;;;;;;12.35;1.67;;;32.70;99.90;;;;;;4167296;28;20207;-91
2022/08/23 10:31:51;;;;;;;5.60;0.77;;;32.10;99.90;;;;;;4150782;28;20677;-93
2022/08/23 10:33:58;;;;;;;7.80;1.00;;;31.30;99.90;;;;;;4150577;28;20177;-95
2022/08/23 10:36:05;;;;;;;1.90;0.95;;;31.10;99.90;;;;;;4150701;28;20291;-92
2022/08/23 10:38:16;;;;;;;3.05;0.77;;;31.10;99.90;;;;;;4167084;28;20557;-93
2022/08/23 10:40:47;;;;;;;2.05;0.80;;;30.70;99.90;;;;;;4150829;28;20223;-93
2022/08/23 10:42:59;;;;;;;1.02;0.77;;;30.70;99.90;;;;;;4150892;28;20295;-93
2022/08/23 10:45:15;;;;;;;1.55;0.55;;;30.60;99.90;;;;;;4167082;28;20176;-92
2022/08/23 10:47:26;;;;;;;1.83;0.70;;;30.50;99.90;;;;;;4167060;28;20164;-93
2022/08/23 10:49:28;;;;;;;1.48;0.88;;;30.20;99.90;;;;;;4150755;28;20203;-92
2022/08/23 10:51:35;;;;;;;1.17;0.77;;;29.90;99.90;;;;;;4150712;28;20200;-93
2022/08/23 10:53:45;;;;;;;2.15;0.70;;;29.80;99.90;;;;;;4166975;28;20588;-93
2022/08/23 10:56:03;;;;;;;1.63;0.55;;;29.80;99.90;;;;;;4166994;28;20168;-91
2022/08/23 10:58:19;;;;;;;4.00;0.47;;;30.00;99.90;;;;;;4151168;28;20707;-95
2022/08/23 11:00:26;;;;;;;1.75;0.50;;;30.20;99.90;;;;;;4150398;28;20165;-93